Gnv Atlas — IBUH — position and weather

sailwx.info

Track history (hours):
 
Tides and Currents Weather Stations Pressure Air Temp Water Temp Dewpoint Dewpoint Depression Visibility Wind Speed Wind Dir Waves Ship Positions

Gnv Atlas

Last reported at 2017-Jul-23 14:30 UTC. Time now 2017-Jul-23 14:47 UTC.
Position N 43°24' E 003°42'.

Length 162 m; draft 6.2 m.

Type: Passenger vessel. MMSI: 247163100.

Date/timePositionNaut miles runAvg speedWind from/ knotsBaromVisibWave heightAir tempDewpointWater temp
2017-Jul-23 14:30N 43°24' E 003°42'0 0.0
2017-Jul-23 14:00N 43°24' E 003°42'0 0.0
2017-Jul-23 13:30N 43°24' E 003°42'0 0.0
2017-Jul-23 13:00N 43°24' E 003°42'0 0.0
2017-Jul-23 12:30N 43°24' E 003°42'0 0.0
2017-Jul-23 11:57N 43°24' E 003°42'0 0.0
2017-Jul-23 11:30N 43°24' E 003°42'0 0.0
2017-Jul-23 11:00N 43°24' E 003°42'0 0.0
2017-Jul-23 10:30N 43°24' E 003°42'0 0.0
2017-Jul-23 09:54N 43°24' E 003°42'0 0.0
2017-Jul-23 09:30N 43°24' E 003°42'0 0.0
2017-Jul-23 08:54N 43°24' E 003°42'0 0.0
2017-Jul-23 08:30N 43°24' E 003°42'0 0.0
2017-Jul-23 06:54N 43°24' E 003°42'0 0.0
2017-Jul-23 06:21N 43°24' E 003°42'1 4.1
2017-Jul-23 06:00N 43°24' E 003°44'714.1
2017-Jul-23 05:30N 43°17' E 003°45'816.5
2017-Jul-23 05:00N 43°09' E 003°43'9216.7
2017-Jul-22 23:28N 41°39' E 003°12'917.7
2017-Jul-22 22:58N 41°31' E 003°07'917.6
2017-Jul-22 22:29N 41°26' E 002°59'1017.9
2017-Jul-22 21:53N 41°19' E 002°48'1318.3
2017-Jul-22 21:11N 41°08' E 002°38'318.3
2017-Jul-22 21:00N 41°05' E 002°36'918.3
2017-Jul-22 20:30N 40°58' E 002°29'918.3
2017-Jul-22 20:00N 40°51' E 002°22'918.3
2017-Jul-22 19:30N 40°43' E 002°15'917.4
2017-Jul-22 19:00N 40°36' E 002°08'1019.8
2017-Jul-22 18:30N 40°28' E 002°01'1020.0
2017-Jul-22 18:00N 40°19' E 001°54'1019.9
2017-Jul-22 17:30N 40°11' E 001°47'1019.9
2017-Jul-22 17:00N 40°03' E 001°40'1019.6
2017-Jul-22 16:30N 39°55' E 001°32'1019.7
2017-Jul-22 16:00N 39°46' E 001°25'2119.8
2017-Jul-22 14:58N 39°29' E 001°10'1919.6
2017-Jul-22 14:00N 39°14' E 000°56'5320.2
2017-Jul-22 11:22N 38°30' E 000°18'820.0
2017-Jul-22 10:59N 38°23' E 000°13'913.1
2017-Jul-22 10:18N 38°16' E 000°07'517.3
2017-Jul-22 10:00N 38°11' E 000°03'1419.6
2017-Jul-22 09:18N 37°60' W 000°06'619.5
2017-Jul-22 09:00N 37°55' W 000°10'3219.4
2017-Jul-22 07:21N 37°30' W 000°35'719.6
2017-Jul-22 07:00N 37°24' W 000°41'1219.5
2017-Jul-22 06:24N 37°15' W 000°50'1019.5
2017-Jul-22 05:53N 37°08' W 000°58'2219.4
2017-Jul-22 04:45N 36°51' W 001°16'919.1
2017-Jul-22 04:18N 36°45' W 001°23'619.0
2017-Jul-22 04:00N 36°40' W 001°28'1019.3
2017-Jul-22 03:28N 36°32' W 001°36'227 8.5
2017-Jul-21 00:48N 39°41' E 001°04'618.4
2017-Jul-21 00:30N 39°46' E 001°07'918.4
2017-Jul-21 00:00N 39°54' E 001°13'918.5
2017-Jul-20 23:30N 40°02' E 001°18'918.6
2017-Jul-20 23:00N 40°10' E 001°24'918.5
2017-Jul-20 22:30N 40°18' E 001°30'918.6
2017-Jul-20 22:00N 40°27' E 001°35'918.2
2017-Jul-20 21:30N 40°35' E 001°41'917.9
2017-Jul-20 21:00N 40°43' E 001°46'814.7
2017-Jul-20 20:30N 40°49' E 001°51'817.0
2017-Jul-20 20:00N 40°57' E 001°56'917.8
2017-Jul-20 19:29N 41°05' E 002°01'714.4
2017-Jul-20 19:01N 41°11' E 002°05'815.2
2017-Jul-20 18:30N 41°18' E 002°10'4 7.5
2017-Jul-20 17:59N 41°22' E 002°11'5 0.8
2017-Jul-20 11:05N 41°17' E 002°11'217.4
2017-Jul-20 10:58N 41°15' E 002°10'917.5
2017-Jul-20 10:28N 41°07' E 002°05'817.4
2017-Jul-20 10:00N 40°60' E 002°00'917.3
2017-Jul-20 09:30N 40°52' E 001°55'917.2
2017-Jul-20 09:00N 40°44' E 001°50'917.2
2017-Jul-20 08:30N 40°37' E 001°44'817.2
2017-Jul-20 08:00N 40°29' E 001°39'917.2
2017-Jul-20 07:30N 40°21' E 001°34'917.2
2017-Jul-20 07:00N 40°14' E 001°29'917.4
2017-Jul-20 06:30N 40°06' E 001°24'917.5
2017-Jul-20 06:00N 39°58' E 001°19'1117.6
2017-Jul-20 05:22N 39°48' E 001°12'617.7
2017-Jul-20 05:00N 39°43' E 001°08'1117.7
2017-Jul-20 04:24N 39°33' E 001°02'1817.6
2017-Jul-20 03:24N 39°17' E 000°51'717.8
2017-Jul-20 03:00N 39°11' E 000°47'1018.2
2017-Jul-20 02:29N 39°03' E 000°41'9318.3
2017-Jul-19 21:25N 37°44' W 000°21'2918.4
2017-Jul-19 19:51N 37°21' W 000°43'718.5
2017-Jul-19 19:30N 37°17' W 000°49'3018.6
2017-Jul-19 17:52N 36°53' W 001°14'1418.3
2017-Jul-19 17:06N 36°43' W 001°25'218.0
2017-Jul-19 17:00N 36°42' W 001°26'1018.3
2017-Jul-19 16:29N 36°34' W 001°34'1318.4
2017-Jul-19 15:47N 36°24' W 001°44'718.8
2017-Jul-19 15:25N 36°19' W 001°49'18 1.2
2017-Jul-19 01:15N 36°06' W 002°04'4817.6
2017-Jul-18 22:33N 36°43' W 001°27'1618.5
2017-Jul-18 21:40N 36°56' W 001°14'518.2
2017-Jul-18 21:25N 36°59' W 001°10'718.1
2017-Jul-18 21:00N 37°05' W 001°05'1018.3
2017-Jul-18 20:26N 37°13' W 000°56'818.3
2017-Jul-18 20:00N 37°19' W 000°50'918.2
2017-Jul-18 19:30N 37°26' W 000°43'918.0
2017-Jul-18 19:00N 37°33' W 000°35'918.0
2017-Jul-18 18:30N 37°40' W 000°29'917.9
2017-Jul-18 18:00N 37°48' W 000°23'917.7
2017-Jul-18 17:30N 37°55' W 000°17'917.8
2017-Jul-18 17:00N 38°03' W 000°10'917.9
2017-Jul-18 16:30N 38°11' W 000°05'917.6
2017-Jul-18 16:00N 38°18' E 000°01'917.6
2017-Jul-18 15:30N 38°26' E 000°07'817.4
2017-Jul-18 15:00N 38°33' E 000°13'1917.2
2017-Jul-18 13:53N 38°48' E 000°28'1417.2
2017-Jul-18 13:03N 39°00' E 000°38'5117.7
2017-Jul-18 10:08N 39°42' E 001°17'317.9
2017-Jul-18 10:00N 39°44' E 001°19'917.7
2017-Jul-18 09:30N 39°51' E 001°26'917.8
2017-Jul-18 09:00N 39°58' E 001°32'917.2
2017-Jul-18 08:30N 40°05' E 001°39'817.2
2017-Jul-18 08:00N 40°12' E 001°45'917.6
2017-Jul-18 07:30N 40°20' E 001°52'917.6
2017-Jul-18 07:00N 40°27' E 001°58'917.7
2017-Jul-18 06:30N 40°34' E 002°04'917.7
2017-Jul-18 06:00N 40°41' E 002°12'917.9
2017-Jul-18 05:30N 40°49' E 002°19'917.9
2017-Jul-18 05:00N 40°56' E 002°25'917.3
2017-Jul-18 04:30N 41°03' E 002°32'919.4
2017-Jul-18 04:00N 41°11' E 002°39'1019.4
2017-Jul-18 03:30N 41°19' E 002°46'1019.5
2017-Jul-18 02:59N 41°27' E 002°55'919.2
2017-Jul-18 02:30N 41°34' E 003°02'1019.0
2017-Jul-18 02:00N 41°42' E 003°10'1018.8
2017-Jul-18 01:29N 41°50' E 003°18'918.5
2017-Jul-18 01:00N 41°58' E 003°23'1118.9
2017-Jul-18 00:25N 42°09' E 003°25'818.7
2017-Jul-18 00:00N 42°16' E 003°28'918.3
2017-Jul-17 23:30N 42°25' E 003°30'918.4
2017-Jul-17 23:00N 42°34' E 003°33'918.5
2017-Jul-17 22:30N 42°43' E 003°35'918.5
2017-Jul-17 22:00N 42°52' E 003°37'1018.9
2017-Jul-17 21:30N 43°02' E 003°40'1019.0
2017-Jul-17 20:59N 43°11' E 003°41'919.2
2017-Jul-17 20:30N 43°21' E 003°44'4 2.5
2017-Jul-17 19:06N 43°24' E 003°42'0 0.0
2017-Jul-17 15:33N 43°24' E 003°42'0 0.0
2017-Jul-17 15:30N 43°24' E 003°42'0 0.0
2017-Jul-17 13:06N 43°24' E 003°42'0 0.0
2017-Jul-17 11:06N 43°24' E 003°42'0 0.0
2017-Jul-17 10:54N 43°24' E 003°42'0 0.0
2017-Jul-17 07:09N 43°24' E 003°42'10 5.3
2017-Jul-17 05:09N 43°14' E 003°43'414.2
2017-Jul-17 04:54N 43°10' E 003°42'2514.2
2017-Jul-17 03:10N 42°46' E 003°37'312.6
2017-Jul-17 02:54N 42°42' E 003°38'411.1
2017-Jul-17 02:30N 42°38' E 003°37'1914.5
2017-Jul-17 01:10N 42°19' E 003°30'414.9
2017-Jul-17 00:55N 42°16' E 003°29'2214.8
2017-Jul-16 23:24N 41°54' E 003°21'615.7
2017-Jul-16 23:00N 41°49' E 003°18'816.0
2017-Jul-16 22:29N 41°42' E 003°11'816.0
2017-Jul-16 22:00N 41°36' E 003°04'915.9
2017-Jul-16 21:25N 41°29' E 002°56'715.7
2017-Jul-16 21:00N 41°24' E 002°51'815.6
2017-Jul-16 20:30N 41°17' E 002°46'815.6
2017-Jul-16 20:00N 41°11' E 002°40'815.6
2017-Jul-16 19:30N 41°04' E 002°34'815.6
2017-Jul-16 19:00N 40°58' E 002°29'815.1
2017-Jul-16 18:30N 40°52' E 002°23'917.9
2017-Jul-16 18:00N 40°44' E 002°16'917.9
2017-Jul-16 17:30N 40°37' E 002°09'917.8
2017-Jul-16 17:00N 40°30' E 002°03'917.7
2017-Jul-16 16:30N 40°22' E 001°56'917.9
2017-Jul-16 16:00N 40°15' E 001°50'918.0
2017-Jul-16 15:30N 40°07' E 001°43'918.2
2017-Jul-16 15:00N 39°60' E 001°37'918.2
2017-Jul-16 14:30N 39°52' E 001°30'918.2
2017-Jul-16 14:00N 39°45' E 001°23'2718.2
2017-Jul-16 12:31N 39°22' E 001°04'018.2
2017-Jul-16 12:30N 39°22' E 001°03'1117.8
2017-Jul-16 11:52N 39°13' E 000°55'1217.6
2017-Jul-16 11:10N 39°02' E 000°46'418.0
2017-Jul-16 10:58N 38°59' E 000°44'3518.3
2017-Jul-16 09:02N 38°30' E 000°19'320.1
2017-Jul-16 08:54N 38°28' E 000°17'1020.1
2017-Jul-16 08:24N 38°19' E 000°09'819.8
2017-Jul-16 08:00N 38°13' E 000°04'1019.6
2017-Jul-16 07:28N 38°04' W 000°04'1219.4
2017-Jul-16 06:51N 37°54' W 000°12'1119.4
2017-Jul-16 06:17N 37°45' W 000°21'519.5
2017-Jul-16 06:00N 37°41' W 000°25'1019.3
2017-Jul-16 05:30N 37°33' W 000°31'1019.3
2017-Jul-16 04:58N 37°25' W 000°40'919.2
2017-Jul-16 04:30N 37°18' W 000°47'1019.0
2017-Jul-16 04:00N 37°11' W 000°55'1119.2
2017-Jul-16 03:24N 37°02' W 001°04'919.3
2017-Jul-16 02:58N 36°56' W 001°11'9 0.5
2017-Jul-15 06:22N 37°05' W 001°07'719.4
2017-Jul-15 06:00N 37°10' W 000°60'1019.6
2017-Jul-15 05:28N 37°17' W 000°51'919.7
2017-Jul-15 05:01N 37°24' W 000°44'1019.6
2017-Jul-15 04:31N 37°32' W 000°36'1019.6
2017-Jul-15 04:01N 37°40' W 000°29'1119.7
2017-Jul-15 03:28N 37°49' W 000°22'919.6
2017-Jul-15 03:00N 37°57' W 000°16'1119.6
2017-Jul-15 02:26N 38°06' W 000°08'2719.3
2017-Jul-15 01:03N 38°28' E 000°11'8619.0
2017-Jul-14 20:33N 39°43' E 001°03'219.1
2017-Jul-14 20:28N 39°45' E 001°05'1119.2
2017-Jul-14 19:52N 39°54' E 001°13'719.3
2017-Jul-14 19:30N 40°01' E 001°17'919.1
2017-Jul-14 19:00N 40°09' E 001°23'1019.4
2017-Jul-14 18:30N 40°18' E 001°29'1019.5
2017-Jul-14 18:00N 40°26' E 001°35'1019.2
2017-Jul-14 17:30N 40°35' E 001°41'1019.0
2017-Jul-14 17:00N 40°43' E 001°47'918.9
2017-Jul-14 16:30N 40°52' E 001°52'1019.1
2017-Jul-14 15:58N 41°01' E 001°58'919.3
2017-Jul-14 15:29N 41°09' E 002°05'14 2.0
2017-Jul-14 08:50N 41°22' E 002°11'5 7.3
2017-Jul-14 08:08N 41°17' E 002°11'1 7.7
2017-Jul-14 08:00N 41°15' E 002°11'1019.4
2017-Jul-14 07:30N 41°07' E 002°06'1019.8
2017-Jul-14 07:00N 40°58' E 001°59'1019.7
2017-Jul-14 06:30N 40°50' E 001°53'1019.7
2017-Jul-14 06:00N 40°41' E 001°47'1019.8
2017-Jul-14 05:30N 40°32' E 001°42'1019.9
2017-Jul-14 05:00N 40°23' E 001°35'1020.2
2017-Jul-14 04:30N 40°14' E 001°29'1020.6
2017-Jul-14 04:00N 40°05' E 001°23'1020.1
2017-Jul-14 03:30N 39°56' E 001°16'1119.8
2017-Jul-14 02:57N 39°47' E 001°10'3119.4
2017-Jul-14 01:22N 39°19' E 000°52'819.2
2017-Jul-14 00:58N 39°12' E 000°48'919.5
2017-Jul-14 00:30N 39°04' E 000°42'1920.1
2017-Jul-13 23:32N 38°47' E 000°31'220.2
2017-Jul-13 23:27N 38°46' E 000°30'1919.8
2017-Jul-13 22:30N 38°29' E 000°17'1019.7
2017-Jul-13 22:01N 38°22' E 000°10'1219.5
2017-Jul-13 21:25N 38°12' E 000°02'819.7
2017-Jul-13 21:00N 38°05' W 000°03'1019.7
2017-Jul-13 20:30N 37°56' W 000°09'1019.6
2017-Jul-13 20:00N 37°48' W 000°16'1019.4
2017-Jul-13 19:30N 37°40' W 000°23'1019.2
2017-Jul-13 19:00N 37°33' W 000°31'1219.4
2017-Jul-13 18:24N 37°24' W 000°41'819.8
2017-Jul-13 17:59N 37°18' W 000°48'1020.0
2017-Jul-13 17:30N 37°11' W 000°56'1020.1
2017-Jul-13 17:00N 37°03' W 001°04'1019.9
2017-Jul-13 16:30N 36°55' W 001°11'916.7
2017-Jul-13 16:00N 36°49' W 001°19'1019.6
2017-Jul-13 15:29N 36°42' W 001°27'1019.8
2017-Jul-13 15:00N 36°34' W 001°34'  
Track history (hours):
 
Tides and Currents Weather Stations Pressure Air Temp Water Temp Dewpoint Dewpoint Depression Visibility Wind Speed Wind Dir Waves Ship Positions

Gnv Atlas

Last reported at 2017-Jul-23 14:30 UTC. Time now 2017-Jul-23 14:47 UTC.
Position N 43°24' E 003°42'.

Length 162 m; draft 6.2 m.

Type: Passenger vessel. MMSI: 247163100.

Date/timePositionNaut miles runAvg speedWind from/ knotsBaromVisibWave heightAir tempDewpointWater temp
2017-Jul-23 14:30N 43°24' E 003°42'0 0.0
2017-Jul-23 14:00N 43°24' E 003°42'0 0.0
2017-Jul-23 13:30N 43°24' E 003°42'0 0.0
2017-Jul-23 13:00N 43°24' E 003°42'0 0.0
2017-Jul-23 12:30N 43°24' E 003°42'0 0.0
2017-Jul-23 11:57N 43°24' E 003°42'0 0.0
2017-Jul-23 11:30N 43°24' E 003°42'0 0.0
2017-Jul-23 11:00N 43°24' E 003°42'0 0.0
2017-Jul-23 10:30N 43°24' E 003°42'0 0.0
2017-Jul-23 09:54N 43°24' E 003°42'0 0.0
2017-Jul-23 09:30N 43°24' E 003°42'0 0.0
2017-Jul-23 08:54N 43°24' E 003°42'0 0.0
2017-Jul-23 08:30N 43°24' E 003°42'0 0.0
2017-Jul-23 06:54N 43°24' E 003°42'0 0.0
2017-Jul-23 06:21N 43°24' E 003°42'1 4.1
2017-Jul-23 06:00N 43°24' E 003°44'714.1
2017-Jul-23 05:30N 43°17' E 003°45'816.5
2017-Jul-23 05:00N 43°09' E 003°43'9216.7
2017-Jul-22 23:28N 41°39' E 003°12'917.7
2017-Jul-22 22:58N 41°31' E 003°07'917.6
2017-Jul-22 22:29N 41°26' E 002°59'1017.9
2017-Jul-22 21:53N 41°19' E 002°48'1318.3
2017-Jul-22 21:11N 41°08' E 002°38'318.3
2017-Jul-22 21:00N 41°05' E 002°36'918.3
2017-Jul-22 20:30N 40°58' E 002°29'918.3
2017-Jul-22 20:00N 40°51' E 002°22'918.3
2017-Jul-22 19:30N 40°43' E 002°15'917.4
2017-Jul-22 19:00N 40°36' E 002°08'1019.8
2017-Jul-22 18:30N 40°28' E 002°01'1020.0
2017-Jul-22 18:00N 40°19' E 001°54'1019.9
2017-Jul-22 17:30N 40°11' E 001°47'1019.9
2017-Jul-22 17:00N 40°03' E 001°40'1019.6
2017-Jul-22 16:30N 39°55' E 001°32'1019.7
2017-Jul-22 16:00N 39°46' E 001°25'2119.8
2017-Jul-22 14:58N 39°29' E 001°10'1919.6
2017-Jul-22 14:00N 39°14' E 000°56'5320.2
2017-Jul-22 11:22N 38°30' E 000°18'820.0
2017-Jul-22 10:59N 38°23' E 000°13'913.1
2017-Jul-22 10:18N 38°16' E 000°07'517.3
2017-Jul-22 10:00N 38°11' E 000°03'1419.6
2017-Jul-22 09:18N 37°60' W 000°06'619.5
2017-Jul-22 09:00N 37°55' W 000°10'3219.4
2017-Jul-22 07:21N 37°30' W 000°35'719.6
2017-Jul-22 07:00N 37°24' W 000°41'1219.5
2017-Jul-22 06:24N 37°15' W 000°50'1019.5
2017-Jul-22 05:53N 37°08' W 000°58'2219.4
2017-Jul-22 04:45N 36°51' W 001°16'919.1
2017-Jul-22 04:18N 36°45' W 001°23'619.0
2017-Jul-22 04:00N 36°40' W 001°28'1019.3
2017-Jul-22 03:28N 36°32' W 001°36'227 8.5
2017-Jul-21 00:48N 39°41' E 001°04'618.4
2017-Jul-21 00:30N 39°46' E 001°07'918.4
2017-Jul-21 00:00N 39°54' E 001°13'918.5
2017-Jul-20 23:30N 40°02' E 001°18'918.6
2017-Jul-20 23:00N 40°10' E 001°24'918.5
2017-Jul-20 22:30N 40°18' E 001°30'918.6
2017-Jul-20 22:00N 40°27' E 001°35'918.2
2017-Jul-20 21:30N 40°35' E 001°41'917.9
2017-Jul-20 21:00N 40°43' E 001°46'814.7
2017-Jul-20 20:30N 40°49' E 001°51'817.0
2017-Jul-20 20:00N 40°57' E 001°56'917.8
2017-Jul-20 19:29N 41°05' E 002°01'714.4
2017-Jul-20 19:01N 41°11' E 002°05'815.2
2017-Jul-20 18:30N 41°18' E 002°10'4 7.5
2017-Jul-20 17:59N 41°22' E 002°11'5 0.8
2017-Jul-20 11:05N 41°17' E 002°11'217.4
2017-Jul-20 10:58N 41°15' E 002°10'917.5
2017-Jul-20 10:28N 41°07' E 002°05'817.4
2017-Jul-20 10:00N 40°60' E 002°00'917.3
2017-Jul-20 09:30N 40°52' E 001°55'917.2
2017-Jul-20 09:00N 40°44' E 001°50'917.2
2017-Jul-20 08:30N 40°37' E 001°44'817.2
2017-Jul-20 08:00N 40°29' E 001°39'917.2
2017-Jul-20 07:30N 40°21' E 001°34'917.2
2017-Jul-20 07:00N 40°14' E 001°29'917.4
2017-Jul-20 06:30N 40°06' E 001°24'917.5
2017-Jul-20 06:00N 39°58' E 001°19'1117.6
2017-Jul-20 05:22N 39°48' E 001°12'617.7
2017-Jul-20 05:00N 39°43' E 001°08'1117.7
2017-Jul-20 04:24N 39°33' E 001°02'1817.6
2017-Jul-20 03:24N 39°17' E 000°51'717.8
2017-Jul-20 03:00N 39°11' E 000°47'1018.2
2017-Jul-20 02:29N 39°03' E 000°41'9318.3
2017-Jul-19 21:25N 37°44' W 000°21'2918.4
2017-Jul-19 19:51N 37°21' W 000°43'718.5
2017-Jul-19 19:30N 37°17' W 000°49'3018.6
2017-Jul-19 17:52N 36°53' W 001°14'1418.3
2017-Jul-19 17:06N 36°43' W 001°25'218.0
2017-Jul-19 17:00N 36°42' W 001°26'1018.3
2017-Jul-19 16:29N 36°34' W 001°34'1318.4
2017-Jul-19 15:47N 36°24' W 001°44'718.8
2017-Jul-19 15:25N 36°19' W 001°49'18 1.2
2017-Jul-19 01:15N 36°06' W 002°04'4817.6
2017-Jul-18 22:33N 36°43' W 001°27'1618.5
2017-Jul-18 21:40N 36°56' W 001°14'518.2
2017-Jul-18 21:25N 36°59' W 001°10'718.1
2017-Jul-18 21:00N 37°05' W 001°05'1018.3
2017-Jul-18 20:26N 37°13' W 000°56'818.3
2017-Jul-18 20:00N 37°19' W 000°50'918.2
2017-Jul-18 19:30N 37°26' W 000°43'918.0
2017-Jul-18 19:00N 37°33' W 000°35'918.0
2017-Jul-18 18:30N 37°40' W 000°29'917.9
2017-Jul-18 18:00N 37°48' W 000°23'917.7
2017-Jul-18 17:30N 37°55' W 000°17'917.8
2017-Jul-18 17:00N 38°03' W 000°10'917.9
2017-Jul-18 16:30N 38°11' W 000°05'917.6
2017-Jul-18 16:00N 38°18' E 000°01'917.6
2017-Jul-18 15:30N 38°26' E 000°07'817.4
2017-Jul-18 15:00N 38°33' E 000°13'1917.2
2017-Jul-18 13:53N 38°48' E 000°28'1417.2
2017-Jul-18 13:03N 39°00' E 000°38'5117.7
2017-Jul-18 10:08N 39°42' E 001°17'317.9
2017-Jul-18 10:00N 39°44' E 001°19'917.7
2017-Jul-18 09:30N 39°51' E 001°26'917.8
2017-Jul-18 09:00N 39°58' E 001°32'917.2
2017-Jul-18 08:30N 40°05' E 001°39'817.2
2017-Jul-18 08:00N 40°12' E 001°45'917.6
2017-Jul-18 07:30N 40°20' E 001°52'917.6
2017-Jul-18 07:00N 40°27' E 001°58'917.7
2017-Jul-18 06:30N 40°34' E 002°04'917.7
2017-Jul-18 06:00N 40°41' E 002°12'917.9
2017-Jul-18 05:30N 40°49' E 002°19'917.9
2017-Jul-18 05:00N 40°56' E 002°25'917.3
2017-Jul-18 04:30N 41°03' E 002°32'919.4
2017-Jul-18 04:00N 41°11' E 002°39'1019.4
2017-Jul-18 03:30N 41°19' E 002°46'1019.5
2017-Jul-18 02:59N 41°27' E 002°55'919.2
2017-Jul-18 02:30N 41°34' E 003°02'1019.0
2017-Jul-18 02:00N 41°42' E 003°10'1018.8
2017-Jul-18 01:29N 41°50' E 003°18'918.5
2017-Jul-18 01:00N 41°58' E 003°23'1118.9
2017-Jul-18 00:25N 42°09' E 003°25'818.7
2017-Jul-18 00:00N 42°16' E 003°28'918.3
2017-Jul-17 23:30N 42°25' E 003°30'918.4
2017-Jul-17 23:00N 42°34' E 003°33'918.5
2017-Jul-17 22:30N 42°43' E 003°35'918.5
2017-Jul-17 22:00N 42°52' E 003°37'1018.9
2017-Jul-17 21:30N 43°02' E 003°40'1019.0
2017-Jul-17 20:59N 43°11' E 003°41'919.2
2017-Jul-17 20:30N 43°21' E 003°44'4 2.5
2017-Jul-17 19:06N 43°24' E 003°42'0 0.0
2017-Jul-17 15:33N 43°24' E 003°42'0 0.0
2017-Jul-17 15:30N 43°24' E 003°42'0 0.0
2017-Jul-17 13:06N 43°24' E 003°42'0 0.0
2017-Jul-17 11:06N 43°24' E 003°42'0 0.0
2017-Jul-17 10:54N 43°24' E 003°42'0 0.0
2017-Jul-17 07:09N 43°24' E 003°42'10 5.3
2017-Jul-17 05:09N 43°14' E 003°43'414.2
2017-Jul-17 04:54N 43°10' E 003°42'2514.2
2017-Jul-17 03:10N 42°46' E 003°37'312.6
2017-Jul-17 02:54N 42°42' E 003°38'411.1
2017-Jul-17 02:30N 42°38' E 003°37'1914.5
2017-Jul-17 01:10N 42°19' E 003°30'414.9
2017-Jul-17 00:55N 42°16' E 003°29'2214.8
2017-Jul-16 23:24N 41°54' E 003°21'615.7
2017-Jul-16 23:00N 41°49' E 003°18'816.0
2017-Jul-16 22:29N 41°42' E 003°11'816.0
2017-Jul-16 22:00N 41°36' E 003°04'915.9
2017-Jul-16 21:25N 41°29' E 002°56'715.7
2017-Jul-16 21:00N 41°24' E 002°51'815.6
2017-Jul-16 20:30N 41°17' E 002°46'815.6
2017-Jul-16 20:00N 41°11' E 002°40'815.6
2017-Jul-16 19:30N 41°04' E 002°34'815.6
2017-Jul-16 19:00N 40°58' E 002°29'815.1
2017-Jul-16 18:30N 40°52' E 002°23'917.9
2017-Jul-16 18:00N 40°44' E 002°16'917.9
2017-Jul-16 17:30N 40°37' E 002°09'917.8
2017-Jul-16 17:00N 40°30' E 002°03'917.7
2017-Jul-16 16:30N 40°22' E 001°56'917.9
2017-Jul-16 16:00N 40°15' E 001°50'918.0
2017-Jul-16 15:30N 40°07' E 001°43'918.2
2017-Jul-16 15:00N 39°60' E 001°37'918.2
2017-Jul-16 14:30N 39°52' E 001°30'918.2
2017-Jul-16 14:00N 39°45' E 001°23'2718.2
2017-Jul-16 12:31N 39°22' E 001°04'018.2
2017-Jul-16 12:30N 39°22' E 001°03'1117.8
2017-Jul-16 11:52N 39°13' E 000°55'1217.6
2017-Jul-16 11:10N 39°02' E 000°46'418.0
2017-Jul-16 10:58N 38°59' E 000°44'3518.3
2017-Jul-16 09:02N 38°30' E 000°19'320.1
2017-Jul-16 08:54N 38°28' E 000°17'1020.1
2017-Jul-16 08:24N 38°19' E 000°09'819.8
2017-Jul-16 08:00N 38°13' E 000°04'1019.6
2017-Jul-16 07:28N 38°04' W 000°04'1219.4
2017-Jul-16 06:51N 37°54' W 000°12'1119.4
2017-Jul-16 06:17N 37°45' W 000°21'519.5
2017-Jul-16 06:00N 37°41' W 000°25'1019.3
2017-Jul-16 05:30N 37°33' W 000°31'1019.3
2017-Jul-16 04:58N 37°25' W 000°40'919.2
2017-Jul-16 04:30N 37°18' W 000°47'1019.0
2017-Jul-16 04:00N 37°11' W 000°55'1119.2
2017-Jul-16 03:24N 37°02' W 001°04'919.3
2017-Jul-16 02:58N 36°56' W 001°11'9 0.5
2017-Jul-15 06:22N 37°05' W 001°07'719.4
2017-Jul-15 06:00N 37°10' W 000°60'1019.6
2017-Jul-15 05:28N 37°17' W 000°51'919.7
2017-Jul-15 05:01N 37°24' W 000°44'1019.6
2017-Jul-15 04:31N 37°32' W 000°36'1019.6
2017-Jul-15 04:01N 37°40' W 000°29'1119.7
2017-Jul-15 03:28N 37°49' W 000°22'919.6
2017-Jul-15 03:00N 37°57' W 000°16'1119.6
2017-Jul-15 02:26N 38°06' W 000°08'2719.3
2017-Jul-15 01:03N 38°28' E 000°11'8619.0
2017-Jul-14 20:33N 39°43' E 001°03'219.1
2017-Jul-14 20:28N 39°45' E 001°05'1119.2
2017-Jul-14 19:52N 39°54' E 001°13'719.3
2017-Jul-14 19:30N 40°01' E 001°17'919.1
2017-Jul-14 19:00N 40°09' E 001°23'1019.4
2017-Jul-14 18:30N 40°18' E 001°29'1019.5
2017-Jul-14 18:00N 40°26' E 001°35'1019.2
2017-Jul-14 17:30N 40°35' E 001°41'1019.0
2017-Jul-14 17:00N 40°43' E 001°47'918.9
2017-Jul-14 16:30N 40°52' E 001°52'1019.1
2017-Jul-14 15:58N 41°01' E 001°58'919.3
2017-Jul-14 15:29N 41°09' E 002°05'14 2.0
2017-Jul-14 08:50N 41°22' E 002°11'5 7.3
2017-Jul-14 08:08N 41°17' E 002°11'1 7.7
2017-Jul-14 08:00N 41°15' E 002°11'1019.4
2017-Jul-14 07:30N 41°07' E 002°06'1019.8
2017-Jul-14 07:00N 40°58' E 001°59'1019.7
2017-Jul-14 06:30N 40°50' E 001°53'1019.7
2017-Jul-14 06:00N 40°41' E 001°47'1019.8
2017-Jul-14 05:30N 40°32' E 001°42'1019.9
2017-Jul-14 05:00N 40°23' E 001°35'1020.2
2017-Jul-14 04:30N 40°14' E 001°29'1020.6
2017-Jul-14 04:00N 40°05' E 001°23'1020.1
2017-Jul-14 03:30N 39°56' E 001°16'1119.8
2017-Jul-14 02:57N 39°47' E 001°10'3119.4
2017-Jul-14 01:22N 39°19' E 000°52'819.2
2017-Jul-14 00:58N 39°12' E 000°48'919.5
2017-Jul-14 00:30N 39°04' E 000°42'1920.1
2017-Jul-13 23:32N 38°47' E 000°31'220.2
2017-Jul-13 23:27N 38°46' E 000°30'1919.8
2017-Jul-13 22:30N 38°29' E 000°17'1019.7
2017-Jul-13 22:01N 38°22' E 000°10'1219.5
2017-Jul-13 21:25N 38°12' E 000°02'819.7
2017-Jul-13 21:00N 38°05' W 000°03'1019.7
2017-Jul-13 20:30N 37°56' W 000°09'1019.6
2017-Jul-13 20:00N 37°48' W 000°16'1019.4
2017-Jul-13 19:30N 37°40' W 000°23'1019.2
2017-Jul-13 19:00N 37°33' W 000°31'1219.4
2017-Jul-13 18:24N 37°24' W 000°41'819.8
2017-Jul-13 17:59N 37°18' W 000°48'1020.0
2017-Jul-13 17:30N 37°11' W 000°56'1020.1
2017-Jul-13 17:00N 37°03' W 001°04'1019.9
2017-Jul-13 16:30N 36°55' W 001°11'916.7
2017-Jul-13 16:00N 36°49' W 001°19'1019.6
2017-Jul-13 15:29N 36°42' W 001°27'1019.8
2017-Jul-13 15:00N 36°34' W 001°34'  

Dump ship's entire track history